sensor_id;sensor_type;location;lat;lon;timestamp;pressure;altitude;pressure_sealevel;temperature;humidity
76095;BME280;64821;13.710;100.604;2023-04-25T20:02:05;100683.88;;;34.20;48.23
76095;BME280;64821;13.710;100.604;2023-04-25T20:03:19;100685.50;;;34.21;48.95
76095;BME280;64821;13.710;100.604;2023-04-25T20:04:26;100636.34;;;33.99;48.33
76095;BME280;64821;13.710;100.604;2023-04-25T20:06:01;100677.72;;;34.23;48.40
76095;BME280;64821;13.710;100.604;2023-04-25T20:07:26;100617.84;;;33.87;48.85
76095;BME280;64821;13.710;100.604;2023-04-25T20:08:42;100555.88;;;33.48;48.64
76095;BME280;64821;13.710;100.604;2023-04-25T20:09:46;100646.00;;;34.05;48.39
76095;BME280;64821;13.710;100.604;2023-04-25T20:10:50;100609.94;;;33.86;48.69
76095;BME280;64821;13.710;100.604;2023-04-25T20:11:57;100587.25;;;33.68;49.25
76095;BME280;64821;13.710;100.604;2023-04-25T20:13:04;100561.16;;;33.53;49.33
76095;BME280;64821;13.710;100.604;2023-04-25T20:14:10;100653.31;;;34.22;49.65
76095;BME280;64821;13.710;100.604;2023-04-25T20:15:16;100542.41;;;33.55;49.06
76095;BME280;64821;13.710;100.604;2023-04-25T20:16:31;100536.03;;;33.42;49.22
76095;BME280;64821;13.710;100.604;2023-04-25T20:17:59;100586.19;;;33.81;49.92
76095;BME280;64821;13.710;100.604;2023-04-25T20:19:05;100655.41;;;34.25;49.56
76095;BME280;64821;13.710;100.604;2023-04-25T20:20:12;100538.59;;;33.48;49.32
76095;BME280;64821;13.710;100.604;2023-04-25T20:21:22;100595.13;;;33.78;49.72
76095;BME280;64821;13.710;100.604;2023-04-25T20:24:05;100532.34;;;33.38;49.62
76095;BME280;64821;13.710;100.604;2023-04-25T20:25:10;100605.38;;;33.90;49.77
76095;BME280;64821;13.710;100.604;2023-04-25T20:26:14;100536.97;;;33.47;49.60
76095;BME280;64821;13.710;100.604;2023-04-25T20:27:18;100578.19;;;33.67;49.38
76095;BME280;64821;13.710;100.604;2023-04-25T20:28:26;100561.78;;;33.59;49.14
76095;BME280;64821;13.710;100.604;2023-04-25T20:29:45;100552.25;;;33.56;49.13
76095;BME280;64821;13.710;100.604;2023-04-25T20:30:49;100531.25;;;33.31;49.55
76095;BME280;64821;13.710;100.604;2023-04-25T20:31:54;100617.63;;;33.92;49.28
76095;BME280;64821;13.710;100.604;2023-04-25T20:33:25;100582.06;;;33.75;49.51
76095;BME280;64821;13.710;100.604;2023-04-25T20:34:29;100645.13;;;34.13;49.53
76095;BME280;64821;13.710;100.604;2023-04-25T20:35:33;100564.91;;;33.69;49.88
76095;BME280;64821;13.710;100.604;2023-04-25T20:36:38;100654.13;;;34.22;50.32
76095;BME280;64821;13.710;100.604;2023-04-25T20:37:42;100632.34;;;34.17;49.48
76095;BME280;64821;13.710;100.604;2023-04-25T20:38:46;100637.63;;;34.22;49.54
76095;BME280;64821;13.710;100.604;2023-04-25T20:39:50;100521.63;;;33.46;50.12
76095;BME280;64821;13.710;100.604;2023-04-25T20:40:54;100560.38;;;33.73;49.82
76095;BME280;64821;13.710;100.604;2023-04-25T20:42:09;100634.53;;;34.24;49.50
76095;BME280;64821;13.710;100.604;2023-04-25T20:43:32;100545.03;;;33.72;49.99
76095;BME280;64821;13.710;100.604;2023-04-25T20:45:03;100624.84;;;34.26;49.26
76095;BME280;64821;13.710;100.604;2023-04-25T20:46:07;100629.53;;;34.26;49.67
76095;BME280;64821;13.710;100.604;2023-04-25T20:47:34;100627.75;;;34.21;49.59
76095;BME280;64821;13.710;100.604;2023-04-25T20:48:40;100635.97;;;34.30;49.44
76095;BME280;64821;13.710;100.604;2023-04-25T20:49:52;100643.41;;;34.29;48.93
76095;BME280;64821;13.710;100.604;2023-04-25T20:51:06;100643.41;;;34.29;48.66
76095;BME280;64821;13.710;100.604;2023-04-25T20:52:35;100549.72;;;33.72;48.85
76095;BME280;64821;13.710;100.604;2023-04-25T20:53:40;100550.09;;;33.62;49.17
76095;BME280;64821;13.710;100.604;2023-04-25T20:54:44;100554.41;;;33.71;49.26
76095;BME280;64821;13.710;100.604;2023-04-25T20:55:48;100635.97;;;34.30;49.13
76095;BME280;64821;13.710;100.604;2023-04-25T20:56:52;100654.88;;;34.31;49.26
76095;BME280;64821;13.710;100.604;2023-04-25T20:57:56;100653.25;;;34.30;49.65
76095;BME280;64821;13.710;100.604;2023-04-25T20:59:00;100657.16;;;34.29;49.52
76095;BME280;64821;13.710;100.604;2023-04-25T21:00:05;100647.75;;;34.30;49.74
76095;BME280;64821;13.710;100.604;2023-04-25T21:01:09;100657.28;;;34.33;49.75
76095;BME280;64821;13.710;100.604;2023-04-25T21:02:13;100571.66;;;33.80;49.19
76095;BME280;64821;13.710;100.604;2023-04-25T21:03:17;100523.38;;;33.50;49.47
76095;BME280;64821;13.710;100.604;2023-04-25T21:04:22;100644.59;;;34.20;49.04
76095;BME280;64821;13.710;100.604;2023-04-25T21:05:26;100664.66;;;34.41;49.37
76095;BME280;64821;13.710;100.604;2023-04-25T21:06:39;100663.53;;;34.42;49.10
76095;BME280;64821;13.710;100.604;2023-04-25T21:08:00;100662.72;;;34.41;49.58
76095;BME280;64821;13.710;100.604;2023-04-25T21:09:08;100551.88;;;33.66;48.98
76095;BME280;64821;13.710;100.604;2023-04-25T21:10:15;100575.09;;;33.77;50.08
76095;BME280;64821;13.710;100.604;2023-04-25T21:11:26;100674.59;;;34.33;49.38
76095;BME280;64821;13.710;100.604;2023-04-25T21:12:49;100667.69;;;34.27;49.99
76095;BME280;64821;13.710;100.604;2023-04-25T21:13:57;100678.63;;;34.36;49.61
76095;BME280;64821;13.710;100.604;2023-04-25T21:15:07;100659.81;;;34.17;49.78
76095;BME280;64821;13.710;100.604;2023-04-25T21:16:12;100680.25;;;34.37;50.12
76095;BME280;64821;13.710;100.604;2023-04-25T21:17:16;100681.81;;;34.38;50.03
76095;BME280;64821;13.710;100.604;2023-04-25T21:18:24;100629.03;;;34.03;49.55
76095;BME280;64821;13.710;100.604;2023-04-25T21:19:28;100659.53;;;34.10;49.67
76095;BME280;64821;13.710;100.604;2023-04-25T21:20:33;100606.94;;;33.78;49.44
76095;BME280;64821;13.710;100.604;2023-04-25T21:21:41;100618.44;;;33.93;49.27
76095;BME280;64821;13.710;100.604;2023-04-25T21:23:01;100671.28;;;34.19;50.00
76095;BME280;64821;13.710;100.604;2023-04-25T21:24:13;100649.88;;;34.04;49.70
76095;BME280;64821;13.710;100.604;2023-04-25T21:25:17;100693.50;;;34.35;50.46
76095;BME280;64821;13.710;100.604;2023-04-25T21:26:29;100634.59;;;33.94;50.17
76095;BME280;64821;13.710;100.604;2023-04-25T21:27:40;100703.03;;;34.37;49.78
76095;BME280;64821;13.710;100.604;2023-04-25T21:28:44;100632.19;;;33.93;50.03
76095;BME280;64821;13.710;100.604;2023-04-25T21:29:49;100702.25;;;34.37;49.82
76095;BME280;64821;13.710;100.604;2023-04-25T21:31:07;100664.69;;;34.11;49.88
76095;BME280;64821;13.710;100.604;2023-04-25T21:32:11;100605.63;;;33.76;49.37
76095;BME280;64821;13.710;100.604;2023-04-25T21:33:23;100705.09;;;34.40;49.24
76095;BME280;64821;13.710;100.604;2023-04-25T21:34:31;100699.59;;;34.40;49.07
76095;BME280;64821;13.710;100.604;2023-04-25T21:35:41;100609.31;;;33.80;49.00
76095;BME280;64821;13.710;100.604;2023-04-25T21:36:54;100621.81;;;33.77;49.96
76095;BME280;64821;13.710;100.604;2023-04-25T21:38:01;100592.91;;;33.63;49.81
76095;BME280;64821;13.710;100.604;2023-04-25T21:39:19;100634.66;;;33.86;49.88
76095;BME280;64821;13.710;100.604;2023-04-25T21:40:34;100708.59;;;34.29;49.61
76095;BME280;64821;13.710;100.604;2023-04-25T21:41:39;100691.22;;;34.16;49.71
76095;BME280;64821;13.710;100.604;2023-04-25T21:42:45;100682.66;;;34.09;49.98
76095;BME280;64821;13.710;100.604;2023-04-25T21:44:01;100633.47;;;33.66;49.80
76095;BME280;64821;13.710;100.604;2023-04-25T21:45:17;100647.34;;;33.78;49.94
76095;BME280;64821;13.710;100.604;2023-04-25T21:46:21;100642.53;;;33.66;49.83
76095;BME280;64821;13.710;100.604;2023-04-25T21:47:25;100720.16;;;34.13;50.07
76095;BME280;64821;13.710;100.604;2023-04-25T21:48:39;100691.03;;;33.92;49.90
76095;BME280;64821;13.710;100.604;2023-04-25T21:49:48;100727.13;;;34.11;49.81
76095;BME280;64821;13.710;100.604;2023-04-25T21:51:11;100636.78;;;33.51;49.87
76095;BME280;64821;13.710;100.604;2023-04-25T21:52:31;100668.19;;;33.70;49.76
76095;BME280;64821;13.710;100.604;2023-04-25T21:53:35;100674.97;;;33.73;49.71
76095;BME280;64821;13.710;100.604;2023-04-25T21:54:41;100763.59;;;34.29;49.46
76095;BME280;64821;13.710;100.604;2023-04-25T21:55:45;100758.91;;;34.29;49.71
76095;BME280;64821;13.710;100.604;2023-04-25T21:56:49;100685.91;;;33.82;49.38
76095;BME280;64821;13.710;100.604;2023-04-25T21:57:53;100763.25;;;34.30;49.61
76095;BME280;64821;13.710;100.604;2023-04-25T21:58:57;100779.75;;;34.30;49.31
76095;BME280;64821;13.710;100.604;2023-04-25T22:00:12;100764.41;;;34.29;49.75
76095;BME280;64821;13.710;100.604;2023-04-25T22:01:17;100762.16;;;34.23;49.64
76095;BME280;64821;13.710;100.604;2023-04-25T22:02:34;100776.88;;;34.27;49.85
76095;BME280;64821;13.710;100.604;2023-04-25T22:03:38;100748.19;;;34.07;49.88
76095;BME280;64821;13.710;100.604;2023-04-25T22:04:43;100774.94;;;34.27;49.44
